那覇 の空港の天気 - METARとTAF

那覇空港 ( ROAH / OKA ) - 沖縄県那覇市
飛行場実況気象(Metar)
観測時間01/22 02:30 JST (01/21 17:30 UTC)
風向・風速東南東 3m/s
視程10km以上
天気現象
少しの雲 雲底高度 300m
全天の8割程度の雲 雲底高度 2130m
気温20℃
湿度88%
気圧1011hPa
METARROAH 211730Z 11006KT 9999 FEW010 BKN070 20/18 Q1011 RMK 1CU010 7AC070 A2988
過去の天気等 Google飛行場航空写真 Wunderground天気予報

過去48時間のMETAR

飛行場予報(TAF)
発表時間: 1/22 02:10 JST (1/21 17:10 UTC)
予報対象時間: 22日3時 JST ~ 23日9時 JST
風向・風速東南東 3m/s
視程8,000m
天気現象弱い雨
全天の4割程度の雲 雲底高度 240m
全天の8割程度の雲 雲底高度 460m
22日3時 JST ~ 22日6時 JST に一時的に
視程4,000m
天気現象
22日6時 JST ~ 22日8時 JST に徐々に
風向・風速西 6m/s
22日6時 JST ~ 22日11時 JST に一時的に
視程2,500m
天気現象強いしゅう雨
少しの雲 雲底高度 180m
全天の8割程度の雲 雲底高度 240m
22日10時 JST ~ 22日12時 JST に徐々に
風向・風速北北西 10m/s
22日21時 JST ~ 22日24時 JST に徐々に
風向・風速北東 3m/s
TAF ROAH 211710Z 2118/2300 11005KT 8000 -RA SCT008 BKN015
TEMPO 2118/2121 4000 RA
BECMG 2121/2123 26011KT
TEMPO 2121/2202 2500 +SHRA FEW006 BKN008
BECMG 2201/2203 34020KT
BECMG 2212/2215 04006KT
日本の空港のMETAR・TAFへのリンク

RJTT 東京国際空港
RJAA 新東京国際空港
RJBB 関西国際空港
RJOO 大阪空港
RJGG 中部国際空港
RJCC 新千歳空港
RJFF 福岡空港
ROAH 那覇空港


RJEC 旭川空港
RJCH 函館空港
RJCK 釧路空港
RJCM 女満別空港
RJCB 帯広空港
RJSA 青森空港
RJSS 仙台空港
RJSK 秋田空港
RJSF 福島空港
RJAH 茨城空港
RJSN 新潟空港
RJNT 富山空港
RJNK 小松飛行場
RJNS 静岡空港
RJOH 美保飛行場
RJOC 出雲空港
RJOB 岡山空港
RJOA 広島空港
RJOI 岩国飛行場
RJOT 高松空港
RJOM 松山空港
RJOK 高知空港
RJFR 北九州空港
RJFT 熊本空港
RJFU 長崎空港
RJFS 佐賀空港
RJFO 大分空港
RJFM 宮崎空港
RJFK 鹿児島空港
ROIG 石垣島空港
RJTY 横田飛行場
ROTM 普天間飛行場
RODN 嘉手納飛行場